createdAt,value
2017-07-30T00:01:37.444Z,87.30
2017-07-30T00:04:05.034Z,87.40
2017-07-30T00:06:32.581Z,87.30
2017-07-30T00:09:00.101Z,87.30
2017-07-30T00:11:27.609Z,87.10
2017-07-30T00:13:55.138Z,86.60
2017-07-30T00:16:22.645Z,87.20
2017-07-30T00:18:50.166Z,87.20
2017-07-30T00:21:17.677Z,87.20
2017-07-30T00:23:45.203Z,87.30
2017-07-30T00:26:12.713Z,87.50
2017-07-30T00:28:40.249Z,87.40
2017-07-30T00:31:07.758Z,87.30
2017-07-30T00:33:35.284Z,87.00
2017-07-30T00:36:02.830Z,86.80
2017-07-30T00:38:30.341Z,86.70
2017-07-30T00:40:57.857Z,86.70
2017-07-30T00:43:25.361Z,86.60
2017-07-30T00:45:52.877Z,86.50
2017-07-30T00:48:20.390Z,86.30
2017-07-30T00:50:47.917Z,86.30
2017-07-30T00:53:16.194Z,86.30
2017-07-30T00:55:44.533Z,86.30
2017-07-30T00:58:12.042Z,86.30
2017-07-30T01:00:39.557Z,86.40
2017-07-30T01:03:07.187Z,86.60
2017-07-30T01:05:34.713Z,86.80
2017-07-30T01:08:03.009Z,87.00
2017-07-30T01:10:30.586Z,87.00
2017-07-30T01:12:58.202Z,87.10
2017-07-30T01:15:25.752Z,87.30
2017-07-30T01:17:53.298Z,87.20
2017-07-30T01:20:20.810Z,87.40
2017-07-30T01:22:48.357Z,87.60
2017-07-30T01:25:16.642Z,88.00
2017-07-30T01:27:44.182Z,88.00
2017-07-30T01:30:12.515Z,89.00
2017-07-30T01:32:40.114Z,88.10
2017-07-30T01:35:07.682Z,88.30
2017-07-30T01:37:35.970Z,88.30
2017-07-30T01:40:04.289Z,88.80
2017-07-30T01:42:31.834Z,88.10
2017-07-30T01:44:59.524Z,87.70
2017-07-30T01:47:27.286Z,87.40
2017-07-30T01:49:54.917Z,87.30
2017-07-30T01:52:22.502Z,87.00
2017-07-30T01:54:50.154Z,86.90
2017-07-30T01:57:17.807Z,86.20
2017-07-30T01:59:45.424Z,85.80
2017-07-30T02:02:12.958Z,85.60
2017-07-30T02:04:40.498Z,85.60
2017-07-30T02:07:08.035Z,85.40
2017-07-30T02:09:35.629Z,85.20
2017-07-30T02:12:03.267Z,85.40
2017-07-30T02:14:30.929Z,85.10
2017-07-30T02:16:58.847Z,85.00
2017-07-30T02:19:26.746Z,85.10
2017-07-30T02:21:56.170Z,85.90
2017-07-30T02:24:23.797Z,85.20
2017-07-30T02:26:51.390Z,85.50
2017-07-30T02:29:19.117Z,85.50
2017-07-30T02:31:46.707Z,85.50
2017-07-30T02:34:14.447Z,85.20
2017-07-30T02:36:41.958Z,85.00
2017-07-30T02:39:09.626Z,84.40
2017-07-30T02:41:37.326Z,83.90
2017-07-30T02:44:04.990Z,83.50
2017-07-30T02:46:32.581Z,83.30
2017-07-30T02:49:00.132Z,83.20
2017-07-30T02:51:28.533Z,81.70
2017-07-30T02:53:56.246Z,81.70
2017-07-30T02:56:23.912Z,80.90
2017-07-30T02:58:51.498Z,80.40
2017-07-30T03:01:19.788Z,80.30
2017-07-30T03:03:48.151Z,80.00
2017-07-30T03:06:15.721Z,80.00
2017-07-30T03:08:43.995Z,80.30
2017-07-30T03:11:12.285Z,80.30
2017-07-30T03:13:39.793Z,80.20
2017-07-30T03:16:07.358Z,80.30
2017-07-30T03:18:34.893Z,80.30
2017-07-30T03:21:02.470Z,80.20
2017-07-30T03:23:30.063Z,80.10
2017-07-30T03:25:57.570Z,80.00
2017-07-30T03:28:25.085Z,79.90
2017-07-30T03:30:52.614Z,79.90
2017-07-30T03:33:20.193Z,79.70
2017-07-30T03:35:47.725Z,79.80
2017-07-30T03:38:15.270Z,79.50
2017-07-30T03:40:42.801Z,79.50
2017-07-30T03:43:10.364Z,79.80
2017-07-30T03:45:37.871Z,79.80
2017-07-30T03:48:05.393Z,79.70
2017-07-30T03:50:32.934Z,79.80
2017-07-30T03:53:01.323Z,79.40
2017-07-30T03:55:29.683Z,78.90
2017-07-30T03:57:58.021Z,78.90
2017-07-30T04:00:25.670Z,78.20
2017-07-30T04:02:53.394Z,78.20
2017-07-30T04:05:21.675Z,78.30
2017-07-30T04:07:49.953Z,78.10
2017-07-30T04:10:18.277Z,78.10
2017-07-30T04:12:45.837Z,78.00
2017-07-30T04:15:13.490Z,77.90
2017-07-30T04:17:41.014Z,77.90
2017-07-30T04:20:09.405Z,77.30
2017-07-30T04:22:36.913Z,77.30
2017-07-30T04:25:04.445Z,77.50
2017-07-30T04:27:31.982Z,77.20
2017-07-30T04:29:59.553Z,77.30
2017-07-30T04:32:27.083Z,77.20
2017-07-30T04:34:55.404Z,78.10
2017-07-30T04:37:22.957Z,77.40
2017-07-30T04:39:50.489Z,77.40
2017-07-30T04:42:18.862Z,77.00
2017-07-30T04:44:47.160Z,76.60
2017-07-30T04:47:14.654Z,76.50
2017-07-30T04:49:42.219Z,76.40
2017-07-30T04:52:09.758Z,76.20
2017-07-30T04:54:37.269Z,75.00
2017-07-30T04:57:04.778Z,74.40
2017-07-30T04:59:32.293Z,73.60
2017-07-30T05:01:59.785Z,73.00
2017-07-30T05:04:27.303Z,72.50
2017-07-30T05:06:54.806Z,71.90
2017-07-30T05:09:22.320Z,70.80
2017-07-30T05:11:49.823Z,69.60
2017-07-30T05:14:17.342Z,68.90
2017-07-30T05:16:44.837Z,67.90
2017-07-30T05:19:12.324Z,67.30
2017-07-30T05:21:39.846Z,66.70
2017-07-30T05:24:07.346Z,65.70
2017-07-30T05:26:34.852Z,64.70
2017-07-30T05:29:02.370Z,63.80
2017-07-30T05:31:29.883Z,63.10
2017-07-30T05:33:57.383Z,62.60
2017-07-30T05:36:24.894Z,62.70
2017-07-30T05:38:52.384Z,63.00
2017-07-30T05:41:19.899Z,62.00
2017-07-30T05:43:47.398Z,62.60
2017-07-30T05:46:15.069Z,62.00
2017-07-30T05:48:42.561Z,61.10
2017-07-30T05:51:10.073Z,60.60
2017-07-30T05:53:37.567Z,60.10
2017-07-30T05:56:05.085Z,60.10
2017-07-30T05:58:32.578Z,59.80
2017-07-30T06:01:00.095Z,59.60
2017-07-30T06:03:27.614Z,59.20
2017-07-30T06:05:55.130Z,59.50
2017-07-30T06:08:22.630Z,58.90
2017-07-30T06:10:50.924Z,60.40
2017-07-30T06:13:19.182Z,60.80
2017-07-30T06:15:46.690Z,60.10
2017-07-30T06:18:14.198Z,60.70
2017-07-30T06:20:42.474Z,61.30
2017-07-30T06:23:09.998Z,61.40
2017-07-30T06:25:37.535Z,61.80
2017-07-30T06:28:05.061Z,61.50
2017-07-30T06:30:33.335Z,61.10
2017-07-30T06:33:01.626Z,61.20
2017-07-30T06:35:29.898Z,60.70
2017-07-30T06:37:58.183Z,60.10
2017-07-30T06:40:26.448Z,60.00
2017-07-30T06:42:54.739Z,59.70
2017-07-30T06:45:22.278Z,59.80
2017-07-30T06:47:49.809Z,59.30
2017-07-30T06:50:17.301Z,59.10
2017-07-30T06:52:45.581Z,59.50
2017-07-30T06:55:13.090Z,59.10
2017-07-30T06:57:40.609Z,59.60
2017-07-30T07:00:08.898Z,59.50
2017-07-30T07:02:36.428Z,59.50
2017-07-30T07:05:03.938Z,59.90
2017-07-30T07:07:31.455Z,60.00
2017-07-30T07:09:59.758Z,60.00
2017-07-30T07:12:27.299Z,59.40
2017-07-30T07:14:56.434Z,59.50
2017-07-30T07:17:23.961Z,59.50
2017-07-30T07:19:51.489Z,58.60
2017-07-30T07:22:19.045Z,57.50
2017-07-30T07:24:46.570Z,57.60
2017-07-30T07:27:14.098Z,58.10
2017-07-30T07:29:42.378Z,56.30
2017-07-30T07:32:09.898Z,56.20
2017-07-30T07:34:37.450Z,55.20
2017-07-30T07:37:10.005Z,54.90
2017-07-30T07:47:17.039Z,53.80
2017-07-30T07:49:55.462Z,51.40
2017-07-30T07:52:23.031Z,51.30
2017-07-30T07:54:50.571Z,51.50
2017-07-30T07:57:18.069Z,50.30
2017-07-30T07:59:45.593Z,47.90
2017-07-30T08:02:13.110Z,47.40
2017-07-30T08:04:40.625Z,46.40
2017-07-30T08:07:08.122Z,46.10
2017-07-30T08:09:35.633Z,45.60
2017-07-30T08:12:03.125Z,45.10
2017-07-30T08:14:30.642Z,44.60
2017-07-30T08:16:58.141Z,44.10
2017-07-30T08:19:25.669Z,43.50
2017-07-30T08:21:53.174Z,43.90
2017-07-30T08:24:20.670Z,44.20
2017-07-30T08:26:48.189Z,43.80
2017-07-30T08:29:15.737Z,43.40
2017-07-30T08:31:43.244Z,43.10
2017-07-30T08:34:10.733Z,43.40
2017-07-30T08:36:38.242Z,43.80
2017-07-30T08:39:05.738Z,43.70
2017-07-30T08:41:33.246Z,42.90
2017-07-30T08:44:00.738Z,41.90
2017-07-30T08:46:28.245Z,40.90
2017-07-30T08:48:55.738Z,39.90
2017-07-30T08:51:24.009Z,39.40
2017-07-30T08:53:51.498Z,39.30
2017-07-30T08:56:19.013Z,39.80
2017-07-30T08:58:46.500Z,39.90
2017-07-30T09:01:14.782Z,40.10
2017-07-30T09:03:43.042Z,40.40
2017-07-30T09:06:10.546Z,40.40
2017-07-30T09:08:38.038Z,40.80
2017-07-30T09:11:05.536Z,40.50
2017-07-30T09:13:33.789Z,40.70
2017-07-30T09:16:01.317Z,40.70
2017-07-30T09:18:28.805Z,41.30
2017-07-30T09:20:56.285Z,41.70
2017-07-30T09:23:24.556Z,40.80
2017-07-30T09:25:52.814Z,39.80
2017-07-30T09:28:20.337Z,39.80
2017-07-30T09:30:47.841Z,39.40
2017-07-30T09:33:15.362Z,40.20
2017-07-30T09:35:42.849Z,39.50
2017-07-30T09:38:10.344Z,39.80
2017-07-30T09:40:37.835Z,39.20
2017-07-30T09:43:05.336Z,38.50
2017-07-30T09:45:32.833Z,38.70
2017-07-30T09:48:00.351Z,38.90
2017-07-30T09:50:28.802Z,39.10
2017-07-30T09:52:56.638Z,38.40
2017-07-30T09:55:24.317Z,39.10
2017-07-30T09:57:51.927Z,39.70
2017-07-30T10:00:20.198Z,38.90
2017-07-30T10:02:47.724Z,38.90
2017-07-30T10:05:15.215Z,39.60
2017-07-30T10:07:42.713Z,41.00
2017-07-30T10:10:10.257Z,41.40
2017-07-30T10:12:37.751Z,44.10
2017-07-30T10:15:05.276Z,43.60
2017-07-30T10:17:33.534Z,42.10
2017-07-30T10:20:01.041Z,42.10
2017-07-30T10:22:28.536Z,40.50
2017-07-30T10:24:56.050Z,40.50
2017-07-30T10:27:23.557Z,41.00
2017-07-30T10:29:51.065Z,41.30
2017-07-30T10:32:18.556Z,41.00
2017-07-30T10:34:46.062Z,40.90
2017-07-30T10:37:14.317Z,38.60
2017-07-30T10:39:41.831Z,38.60
2017-07-30T10:42:09.331Z,38.40
2017-07-30T10:44:36.844Z,39.40
2017-07-30T10:47:04.346Z,40.70
2017-07-30T10:49:31.854Z,39.30
2017-07-30T10:51:59.361Z,40.70
2017-07-30T10:54:26.849Z,41.30
2017-07-30T10:56:55.122Z,41.70
2017-07-30T10:59:22.615Z,41.70
2017-07-30T11:01:50.130Z,41.90
2017-07-30T11:04:17.624Z,39.60
2017-07-30T11:06:45.143Z,39.50
2017-07-30T11:09:12.637Z,39.50
2017-07-30T11:11:40.908Z,37.40
2017-07-30T11:14:08.435Z,37.40
2017-07-30T11:16:35.941Z,37.10
2017-07-30T11:19:03.475Z,38.00
2017-07-30T11:21:31.765Z,37.80
2017-07-30T11:24:00.052Z,36.30
2017-07-30T11:26:27.638Z,36.30
2017-07-30T11:28:55.159Z,35.80
2017-07-30T11:31:23.453Z,37.00
2017-07-30T11:33:50.980Z,37.00
2017-07-30T11:36:19.302Z,36.10
2017-07-30T11:38:46.830Z,36.10
2017-07-30T11:41:15.097Z,36.30
2017-07-30T11:43:42.608Z,36.30
2017-07-30T11:46:10.105Z,36.70
2017-07-30T11:48:38.493Z,36.00
2017-07-30T11:51:05.990Z,36.50
2017-07-30T11:53:33.493Z,36.50
2017-07-30T11:56:00.986Z,36.70
2017-07-30T11:58:29.262Z,35.30
2017-07-30T12:00:56.794Z,35.30
2017-07-30T12:03:24.366Z,34.60
2017-07-30T12:05:51.865Z,35.00
2017-07-30T12:08:19.374Z,34.70
2017-07-30T12:10:46.875Z,34.50
2017-07-30T12:13:14.380Z,34.50
2017-07-30T12:15:41.892Z,34.90
2017-07-30T12:18:09.382Z,36.00
2017-07-30T12:20:36.889Z,35.40
2017-07-30T12:23:04.394Z,37.40
2017-07-30T12:25:31.911Z,36.60
2017-07-30T12:28:00.174Z,36.90
2017-07-30T12:30:27.679Z,36.90
2017-07-30T12:32:55.170Z,37.50
2017-07-30T12:35:22.701Z,36.80
2017-07-30T12:37:50.197Z,36.40
2017-07-30T12:40:17.694Z,36.70
2017-07-30T12:42:45.221Z,37.10
2017-07-30T12:45:13.506Z,36.70
2017-07-30T12:47:41.015Z,36.60
2017-07-30T12:50:08.506Z,36.00
2017-07-30T12:52:36.062Z,36.40
2017-07-30T12:55:03.565Z,36.90
2017-07-30T12:57:31.833Z,38.30
2017-07-30T13:00:00.088Z,37.70
2017-07-30T13:02:27.594Z,37.60
2017-07-30T13:04:55.085Z,38.10
2017-07-30T13:07:22.568Z,37.80
2017-07-30T13:09:50.068Z,39.10
2017-07-30T13:12:17.549Z,37.80
2017-07-30T13:14:45.058Z,38.10
2017-07-30T13:17:12.550Z,38.30
2017-07-30T13:19:40.059Z,37.60
2017-07-30T13:22:07.549Z,37.20
2017-07-30T13:24:35.818Z,36.80
2017-07-30T13:27:04.098Z,37.10
2017-07-30T13:29:32.399Z,37.30
2017-07-30T13:31:59.885Z,37.20
2017-07-30T13:34:27.393Z,36.50
2017-07-30T13:36:54.906Z,36.60
2017-07-30T13:39:22.410Z,35.80
2017-07-30T13:41:50.690Z,36.10
2017-07-30T13:44:18.949Z,37.00
2017-07-30T13:46:46.482Z,36.30
2017-07-30T13:49:13.978Z,35.70
2017-07-30T13:51:41.497Z,35.90
2017-07-30T13:54:08.994Z,36.20
2017-07-30T13:56:37.289Z,37.40
2017-07-30T13:59:04.781Z,36.70
2017-07-30T14:01:32.306Z,35.90
2017-07-30T14:03:59.801Z,35.20
2017-07-30T14:06:27.300Z,35.10
2017-07-30T14:08:55.573Z,36.20
2017-07-30T14:11:23.841Z,36.50
2017-07-30T14:13:52.123Z,35.70
2017-07-30T14:16:20.390Z,36.30
2017-07-30T14:18:47.893Z,36.10
2017-07-30T14:21:15.377Z,36.30
2017-07-30T14:23:42.886Z,34.90
2017-07-30T14:26:11.155Z,34.50
2017-07-30T14:28:39.456Z,35.10
2017-07-30T14:31:06.955Z,35.00
2017-07-30T14:33:34.446Z,35.10
2017-07-30T14:36:02.718Z,33.50
2017-07-30T14:38:30.218Z,33.10
2017-07-30T14:40:57.738Z,33.80
2017-07-30T14:43:25.237Z,35.00
2017-07-30T14:45:52.747Z,35.40
2017-07-30T14:48:20.246Z,35.20
2017-07-30T14:50:47.767Z,35.20
2017-07-30T14:53:15.282Z,35.30
2017-07-30T14:55:42.818Z,34.30
2017-07-30T14:58:10.321Z,34.50
2017-07-30T15:00:37.822Z,34.10
2017-07-30T15:03:06.102Z,33.70
2017-07-30T15:05:34.360Z,33.10
2017-07-30T15:08:01.867Z,33.20
2017-07-30T15:10:29.362Z,33.50
2017-07-30T15:12:56.869Z,34.70
2017-07-30T15:15:24.370Z,35.50
2017-07-30T15:17:51.907Z,35.60
2017-07-30T15:20:19.437Z,35.60
2017-07-30T15:22:47.762Z,33.30
2017-07-30T15:25:15.261Z,33.20
2017-07-30T15:27:43.522Z,32.10
2017-07-30T15:30:11.034Z,32.40
2017-07-30T15:32:38.541Z,31.30
2017-07-30T15:35:06.054Z,32.20
2017-07-30T15:37:33.562Z,32.40
2017-07-30T15:40:01.066Z,32.70
2017-07-30T15:42:28.562Z,32.90
2017-07-30T15:44:56.071Z,32.70
2017-07-30T15:47:23.571Z,33.80
2017-07-30T15:49:51.098Z,35.00
2017-07-30T15:52:18.594Z,35.60
2017-07-30T15:54:46.094Z,36.00
2017-07-30T15:57:14.370Z,36.80
2017-07-30T15:59:42.636Z,36.40
2017-07-30T16:02:10.926Z,36.50
2017-07-30T16:04:39.181Z,37.40
2017-07-30T16:07:06.690Z,37.30
2017-07-30T16:09:34.185Z,37.10
2017-07-30T16:12:01.689Z,37.90
2017-07-30T16:14:29.947Z,39.80
2017-07-30T16:16:57.469Z,39.80
2017-07-30T16:19:24.965Z,40.20
2017-07-30T16:21:52.490Z,40.30
2017-07-30T16:24:20.010Z,41.00
2017-07-30T16:26:47.506Z,40.90
2017-07-30T16:29:15.021Z,41.20
2017-07-30T16:31:42.535Z,41.20
2017-07-30T16:34:10.037Z,39.80
2017-07-30T16:36:38.292Z,41.30
2017-07-30T16:39:05.814Z,41.30
2017-07-30T16:41:33.318Z,42.00
2017-07-30T16:44:01.710Z,43.10
2017-07-30T16:46:29.968Z,43.00
2017-07-30T16:48:57.466Z,43.00
2017-07-30T16:51:24.985Z,43.60
2017-07-30T16:53:52.481Z,44.20
2017-07-30T16:56:19.998Z,44.60
2017-07-30T16:58:47.504Z,45.00
2017-07-30T17:01:15.013Z,47.00
2017-07-30T17:03:42.507Z,50.20
2017-07-30T17:06:10.785Z,55.70
2017-07-30T17:08:38.292Z,55.70
2017-07-30T17:11:05.824Z,55.70
2017-07-30T17:13:33.318Z,71.80
2017-07-30T17:16:00.817Z,63.10
2017-07-30T17:18:29.096Z,77.10
2017-07-30T17:20:57.362Z,78.80
2017-07-30T17:23:25.638Z,80.40
2017-07-30T17:25:53.904Z,80.30
2017-07-30T17:28:21.421Z,80.10
2017-07-30T17:30:48.917Z,81.10
2017-07-30T17:33:16.435Z,81.40
2017-07-30T17:35:43.933Z,81.10
2017-07-30T17:38:11.613Z,80.80
2017-07-30T17:40:39.886Z,80.20
2017-07-30T17:43:07.385Z,80.20
2017-07-30T17:45:34.912Z,79.90
2017-07-30T17:48:03.178Z,79.10
2017-07-30T17:50:30.690Z,78.60
2017-07-30T17:52:58.202Z,78.50
2017-07-30T17:55:25.736Z,78.70
2017-07-30T17:57:53.238Z,79.20
2017-07-30T18:00:20.758Z,77.00
2017-07-30T18:02:48.262Z,76.70
2017-07-30T18:05:15.794Z,79.20
2017-07-30T18:07:43.288Z,80.80
2017-07-30T18:10:10.781Z,79.70
2017-07-30T18:12:38.297Z,81.30
2017-07-30T18:15:05.794Z,81.60
2017-07-30T18:17:33.308Z,82.20
2017-07-30T18:20:01.565Z,82.70
2017-07-30T18:22:29.069Z,82.60
2017-07-30T18:27:35.946Z,74.60
2017-07-30T18:30:06.429Z,75.70
2017-07-30T18:32:46.014Z,75.60
2017-07-30T18:38:00.746Z,77.80
2017-07-30T18:40:43.502Z,81.10
2017-07-30T18:43:13.212Z,86.80
2017-07-30T18:45:42.138Z,90.80
2017-07-30T18:48:12.674Z,90.80
2017-07-30T18:50:42.258Z,92.50
2017-07-30T18:53:11.172Z,93.80
2017-07-30T18:55:40.276Z,94.40
2017-07-30T18:58:20.182Z,93.40
2017-07-30T19:00:49.805Z,93.90
2017-07-30T19:03:17.619Z,93.90
2017-07-30T19:05:46.691Z,94.20
2017-07-30T19:08:15.880Z,94.40
2017-07-30T19:10:48.414Z,94.80
2017-07-30T19:13:17.989Z,95.20
2017-07-30T19:15:48.367Z,95.60
2017-07-30T19:18:17.081Z,95.70
2017-07-30T19:20:44.963Z,95.70
2017-07-30T19:23:12.508Z,95.70
2017-07-30T19:25:40.131Z,95.80
2017-07-30T19:28:08.421Z,95.80
2017-07-30T19:30:36.688Z,95.70
2017-07-30T19:33:04.352Z,95.60
2017-07-30T19:35:32.632Z,95.40
2017-07-30T19:38:00.947Z,95.20
2017-07-30T19:40:28.466Z,95.40
2017-07-30T19:42:55.982Z,94.80
2017-07-30T19:45:23.493Z,95.00
2017-07-30T19:47:51.761Z,95.00
2017-07-30T19:50:20.070Z,95.40
2017-07-30T19:52:47.586Z,95.10
2017-07-30T19:55:15.106Z,95.00
2017-07-30T19:57:42.614Z,94.80
2017-07-30T20:00:10.906Z,94.40
2017-07-30T20:02:39.175Z,94.30
2017-07-30T20:05:07.479Z,94.40
2017-07-30T20:07:34.991Z,94.30
2017-07-30T20:10:02.497Z,94.10
2017-07-30T20:12:30.033Z,93.40
2017-07-30T20:14:58.301Z,93.40
2017-07-30T20:17:26.610Z,93.10
2017-07-30T20:19:54.208Z,93.30
2017-07-30T20:22:21.756Z,93.50
2017-07-30T20:24:49.275Z,93.30
2017-07-30T20:27:16.809Z,93.10
2017-07-30T20:29:44.329Z,92.00
2017-07-30T20:32:11.877Z,92.00
2017-07-30T20:34:39.380Z,91.00
2017-07-30T20:37:06.908Z,91.10
2017-07-30T20:39:34.431Z,90.80
2017-07-30T20:42:02.709Z,90.70
2017-07-30T20:44:31.012Z,90.50
2017-07-30T20:46:58.517Z,90.40
2017-07-30T20:49:26.048Z,90.50
2017-07-30T20:51:53.556Z,90.60
2017-07-30T20:54:21.869Z,90.80
2017-07-30T20:56:49.377Z,90.40
2017-07-30T20:59:16.913Z,90.50
2017-07-30T21:01:44.417Z,90.50
2017-07-30T21:04:12.689Z,90.00
2017-07-30T21:06:40.973Z,90.10
2017-07-30T21:09:08.487Z,90.10
2017-07-30T21:11:36.002Z,90.10
2017-07-30T21:14:03.523Z,90.40
2017-07-30T21:16:31.219Z,90.90
2017-07-30T21:18:59.403Z,90.30
2017-07-30T21:21:26.957Z,90.70
2017-07-30T21:23:54.556Z,90.90
2017-07-30T21:26:22.173Z,91.10
2017-07-30T21:28:50.593Z,91.00
2017-07-30T21:31:18.118Z,91.00
2017-07-30T21:33:45.672Z,90.80
2017-07-30T21:36:14.117Z,90.90
2017-07-30T21:38:41.682Z,90.90
2017-07-30T21:41:09.355Z,91.30
2017-07-30T21:43:36.918Z,91.10
2017-07-30T21:46:04.634Z,90.90
2017-07-30T21:48:32.203Z,90.40
2017-07-30T21:50:59.731Z,90.30
2017-07-30T21:53:27.310Z,90.20
2017-07-30T21:55:54.861Z,90.30
2017-07-30T21:58:22.425Z,90.30
2017-07-30T22:00:49.982Z,90.30
2017-07-30T22:03:17.615Z,90.50
2017-07-30T22:05:45.393Z,90.20
2017-07-30T22:08:13.901Z,90.60
2017-07-30T22:10:41.478Z,90.60
2017-07-30T22:13:09.257Z,90.50
2017-07-30T22:15:36.961Z,90.00
2017-07-30T22:18:05.331Z,89.70
2017-07-30T22:20:32.914Z,89.60
2017-07-30T22:23:00.543Z,89.60
2017-07-30T22:25:28.142Z,88.10
2017-07-30T22:27:55.796Z,87.40
2017-07-30T22:30:23.365Z,87.20
2017-07-30T22:32:50.957Z,88.50
2017-07-30T22:35:18.551Z,87.30
2017-07-30T22:37:46.241Z,86.40
2017-07-30T22:40:13.913Z,85.90
2017-07-30T22:42:42.512Z,85.80
2017-07-30T22:45:10.215Z,86.50
2017-07-30T22:47:37.781Z,86.90
2017-07-30T22:50:05.374Z,87.40
2017-07-30T22:52:33.784Z,87.50
2017-07-30T22:55:01.461Z,87.50
2017-07-30T22:57:29.197Z,87.70
2017-07-30T22:59:56.945Z,88.30
2017-07-30T23:02:24.501Z,88.50
2017-07-30T23:04:52.855Z,89.10
2017-07-30T23:07:20.472Z,89.10
2017-07-30T23:09:48.103Z,89.00
2017-07-30T23:12:17.168Z,90.10
2017-07-30T23:14:45.663Z,90.00
2017-07-30T23:17:13.663Z,90.10
2017-07-30T23:19:42.214Z,90.40
2017-07-30T23:22:09.936Z,90.40
2017-07-30T23:24:40.788Z,90.50
2017-07-30T23:27:08.616Z,90.60
2017-07-30T23:29:36.642Z,90.60
2017-07-30T23:32:04.357Z,90.60
2017-07-30T23:34:32.034Z,90.50
2017-07-30T23:36:59.884Z,89.90
2017-07-30T23:39:29.284Z,88.20
2017-07-30T23:41:59.953Z,87.90
2017-07-30T23:44:27.652Z,87.90
2017-07-30T23:46:59.761Z,88.00
2017-07-30T23:49:28.529Z,87.90
2017-07-30T23:51:57.355Z,86.90
2017-07-30T23:54:25.236Z,86.80
2017-07-30T23:56:53.820Z,86.20
2017-07-30T23:59:22.558Z,84.50
